Tiempo atmosférico en la estación meteorológica de Castejon De Valdejasa, Zaragoza (442 m.)



Fecha
DESCASC
Temp. máxima en grados centígrados (hora)
DESCASC
Temp. mínima en grados centígrados (hora)
DESCASC
Temp. media en grados centígrados
DESCASC
Racha de viento máxima en m/sg (hora)
DESCASC
Velocidad máxima media en intervalos de 10 minutos(hora)
DESCASC
Precipitaciones diarias en mm
DESCASC
Precipitaciones de 00:00 a 06:00 en mm
DESCASC
Precipitaciones de 06:00 a 12:00 en mm
DESCASC
Precipitaciones de 12:00 a 18:00 en mm
DESCASC
Precipitaciones de 18:00 a 24:00 en mm
DESCASC
13-01-2021 7.8 (16:20) 2.5 (05:10) 5.2 16.39 (01:30) 10.28 (00:30) 0 0 0 0 0
12-01-2021 4.7 (16:00) -3.3 (00:00) 0.7 16.11 (23:50) 9.17 (22:00) 0 0 0 0 0
11-01-2021 -- (--) -- (--) -- -- (--) -- (--) -- 0 0 -- 0
10-01-2021 0.6 (15:20) -2.7 (23:59) -1.1 -- (--) 7.22 (14:00) 4.6 0.8 0.8 3 0
09-01-2021 -- (--) -- (--) -- -- (--) -- (--) -- 1.8 -- 3.6 2.8
08-01-2021 0.3 (13:40) -5 (-00:0) -2.3 6.94 (13:10) 4.72 (13:10) 0 0 0 0 0
07-01-2021 -0.6 (15:00) -4.4 (-00:0) -2.5 4.44 (15:00) 3.33 (00:30) 0 0 0 0 0
06-01-2021 4.1 (16:40) -3.6 (-00:0) 0.3 7.5 (01:50) 4.72 (14:00) 0 0 0 0 0
05-01-2021 4.7 (14:20) -1.7 (-00:0) 1.5 11.39 (16:20) 7.5 (06:40) 0 0 0 0 0
04-01-2021 3.3 (12:00) -2.2 (-00:0) 0.5 10.28 (20:00) 6.39 (19:50) 0 0 0 0 0
03-01-2021 5.9 (14:30) -0.6 (-00:0) 2.7 17.22 (02:30) 11.11 (02:30) 0.4 0 0 0 0.4
02-01-2021 4.3 (12:10) -0.5 (-00:0) 1.9 17.5 (18:00) 10.56 (18:00) 0 0 0 0 0
01-01-2021 6.3 (16:10) 0.7 (00:00) 3.5 13.89 (14:40) 8.61 (14:00) 0.2 0.2 0 0 0
31-12-2020 7.7 (14:20) -0.2 (00:00) 3.7 7.5 (15:00) 5 (14:30) 4 0 0 0 4
30-12-2020 7 (14:40) 2 (00:00) 4.5 14.17 (09:20) 8.06 (14:50) 0 0 0 0 0
29-12-2020 7.9 (14:40) 0.6 (00:00) 4.3 14.44 (14:50) 8.89 (14:50) 0 0 0 0 0
28-12-2020 8.4 (13:40) 2.2 (00:00) 5.3 16.39 (02:40) 11.39 (02:40) 2.4 2.2 0.2 0 0
27-12-2020 7 (23:59) -0.5 (-00:0) 3.3 13.33 (21:20) 10 (21:20) 0 0 0 0 0
26-12-2020 6.2 (14:20) 0.5 (00:00) 3.3 15.56 (13:00) 9.17 (09:50) 0 0 0 0 0
25-12-2020 5.5 (00:00) 0.2 (00:00) 2.9 14.72 (14:40) 8.89 (14:50) 0 0 0 0 0
24-12-2020 9.3 (16:10) 4.9 (00:00) 7.1 12.5 (23:40) 7.22 (12:30) 0 0 0 0 0
23-12-2020 14.6 (13:20) 5.6 (23:00) 10.1 9.17 (01:40) 6.39 (08:00) 0 0 0 0 0
21-12-2020 10.4 (14:20) 5.2 (00:00) 7.8 6.11 (01:20) 4.44 (15:40) 0.2 0 0.2 0 0
20-12-2020 10.5 (15:10) 4.1 (00:00) 7.3 10.83 (14:40) 7.5 (14:40) 0.6 0.6 0 0 0
19-12-2020 10.4 (13:50) 6.3 (00:00) 8.3 10 (01:00) 7.78 (02:00) 3.4 0 0 0 3.4
18-12-2020 12.6 (14:20) 2.8 (00:00) 7.7 8.61 (21:30) 6.39 (23:20) 0 0 0 0 0

Gráficas

Temp. máximas Temp. mínimas Temp. medias Precipitaciones Rachas de viento máximas Velocidades máximas media en intervalos de 10 minutos

Datos horarios

Fecha y hora oficial Temperatura (ºC) Velocidad del viento (km/h) Dirección del viento Racha (km/h) Dirección de racha Precipitación (mm) Presión (hPa) Tendencia (hPa) Humedad (%)
2021-01-16 23:00:00 6.7 5 Oeste 25 Noroeste 0 -- -- 51
2021-01-16 22:00:00 9.5 17 Noroeste 35 Noroeste 0 -- -- 32
2021-01-16 21:00:00 9.9 19 Noroeste 34 Noroeste 0 -- -- 32
2021-01-16 20:00:00 10 21 Noroeste 37 Noroeste 0 -- -- 32
2021-01-16 19:00:00 9.8 17 Noroeste 29 Oeste 0 -- -- 38
2021-01-16 18:00:00 10.3 14 Noroeste 35 Noroeste 0 -- -- 42
2021-01-16 17:00:00 11.2 20 Oeste 44 Oeste 0 -- -- 44
2021-01-16 16:00:00 10.2 19 Noroeste 40 Oeste 0 -- -- 48
2021-01-16 15:00:00 10.4 26 Oeste 44 Oeste 0 -- -- 51
2021-01-16 14:00:00 9.4 25 Oeste 46 Oeste 0 -- -- 55
2021-01-16 13:00:00 7.9 28 Oeste 50 Oeste 0 -- -- 64
2021-01-16 12:00:00 7.2 21 Oeste 39 Oeste 0 -- -- 64
2021-01-16 11:00:00 5.7 22 Oeste 33 Oeste 0 -- -- 71
2021-01-16 10:00:00 4.1 14 Oeste 30 Oeste 0 -- -- 77
2021-01-16 09:00:00 3.4 19 Oeste 40 Oeste 0 -- -- 81
2021-01-16 08:00:00 2.9 12 Oeste 32 Oeste 0 -- -- 83
2021-01-16 07:00:00 2.6 15 Oeste 27 Oeste 0 -- -- 85
2021-01-16 06:00:00 3.9 16 Oeste 46 Noroeste 0 -- -- 76
2021-01-16 05:00:00 4.4 30 Noroeste 60 Noroeste 0 -- -- 74
2021-01-16 04:00:00 4.6 30 Noroeste 50 Noroeste 0 -- -- 76
2021-01-16 03:00:00 4.6 26 Noroeste 49 Noroeste 0 -- -- 79
2021-01-16 02:00:00 4.6 22 Noroeste 55 Oeste 0 -- -- 80
2021-01-16 01:00:00 4.4 27 Noroeste 44 Oeste 0 -- -- 82
2021-01-16 00:00:00 4.7 27 Oeste 52 Oeste 0 -- -- 82
2021-01-15 23:00:00 4.7 30 Noroeste 48 Oeste 0 -- -- 81
2021-01-15 22:00:00 4.5 31 Oeste 48 Oeste 0 -- -- 87
2021-01-15 21:00:00 5 34 Oeste 51 Oeste 0 -- -- 82
2021-01-15 20:00:00 5.5 33 Noroeste 53 Oeste 0 -- -- 80
2021-01-15 19:00:00 5.7 28 Oeste 46 Noroeste 0 -- -- 77
2021-01-15 18:00:00 6.5 27 Noroeste 53 Noroeste 0 -- -- 74
2021-01-15 17:00:00 7.7 25 Noroeste 51 Noroeste 0 -- -- 71
2021-01-15 16:00:00 8 27 Noroeste 49 Oeste 0 -- -- 68
2021-01-15 15:00:00 9.2 29 Oeste 53 Oeste 0 -- -- 65
2021-01-15 14:00:00 8.8 29 Noroeste 54 Oeste 0 -- -- 61
2021-01-15 13:00:00 8.8 33 Noroeste 60 Oeste 0 -- -- 65
2021-01-15 12:00:00 7.3 32 Oeste 49 Oeste 0 -- -- 78
2021-01-15 11:00:00 5.6 33 Oeste 52 Oeste 0 -- -- 85
2021-01-15 10:00:00 4.9 32 Oeste 51 Oeste 0 -- -- 88
2021-01-15 09:00:00 4.7 30 Oeste 52 Oeste 0 -- -- 86
2021-01-15 08:00:00 5.1 27 Oeste 50 Oeste 0 -- -- 86
2021-01-15 07:00:00 5 31 Oeste 56 Oeste 0 -- -- 84
2021-01-15 06:00:00 5.2 29 Oeste 45 Oeste 0 -- -- 82
2021-01-15 05:00:00 5.4 26 Oeste 50 Oeste 0 -- -- 79
2021-01-15 04:00:00 5.4 31 Oeste 51 Oeste 0 -- -- 78
2021-01-15 03:00:00 5.2 28 Oeste 51 Oeste 0 -- -- 84
2021-01-15 02:00:00 6.4 24 Noroeste 47 Noroeste 0 -- -- 80
2021-01-15 01:00:00 6.2 26 Oeste 42 Oeste 0 -- -- 87
2021-01-15 00:00:00 6.2 23 Oeste 52 Oeste 0 -- -- 88
2021-01-14 23:00:00 5.6 23 Oeste 41 Oeste 0 -- -- 91
2021-01-14 22:00:00 6.2 23 Oeste 42 Oeste 0 -- -- 88
2021-01-14 21:00:00 5.9 25 Oeste 42 Noroeste 0 -- -- 87
2021-01-14 20:00:00 5.4 15 Oeste 43 Oeste 0 -- -- 85
2021-01-14 19:00:00 5.7 24 Oeste 45 Oeste 0 -- -- 81
2021-01-14 18:00:00 7.2 25 Noroeste 46 Oeste 0 -- -- 77
2021-01-14 17:00:00 8.2 26 Oeste 46 Noroeste 0 -- -- 70
2021-01-14 16:00:00 9.1 28 Oeste 51 Noroeste 0 -- -- 67
2021-01-14 15:00:00 8.5 34 Oeste 57 Noroeste 0 -- -- 71
2021-01-14 14:00:00 8.2 30 Oeste 46 Oeste 0 -- -- 73
2021-01-14 13:00:00 7.9 27 Oeste 59 Oeste 0 -- -- 78
2021-01-14 12:00:00 6.2 27 Oeste 46 Oeste 0 -- -- 82
2021-01-14 11:00:00 4.4 25 Oeste 38 Noroeste 0 -- -- 84
2021-01-14 10:00:00 3.3 20 Oeste 49 Oeste 0 -- -- 86
2021-01-14 09:00:00 2.8 18 Oeste 38 Oeste 0 -- -- 88
2021-01-14 08:00:00 3.1 20 Oeste 39 Oeste 0 -- -- 86
2021-01-14 07:00:00 3.2 22 Oeste 40 Oeste 0 -- -- 87
2021-01-14 06:00:00 3.2 21 Oeste 37 Oeste 0 -- -- 87
2021-01-14 05:00:00 3 22 Oeste 36 Oeste 0 -- -- 88
2021-01-14 04:00:00 3.2 21 Oeste 37 Oeste 0 -- -- 88
2021-01-14 03:00:00 2.9 14 Oeste 31 Oeste 0 -- -- 89
2021-01-14 02:00:00 3.4 17 Oeste 39 Oeste 0 -- -- 89
2021-01-14 01:00:00 3.4 22 Oeste 35 Oeste 0 -- -- 90
2021-01-14 00:00:00 3.8 22 Oeste 42 Oeste 0 -- -- 88
2021-01-13 23:00:00 4.1 23 Oeste 41 Oeste 0 -- -- 89
2021-01-13 22:00:00 2.8 13 Oeste 29 Oeste 0 -- -- 93
2021-01-13 21:00:00 2.8 12 Oeste 33 Oeste 0 -- -- 90
2021-01-13 20:00:00 3.6 15 Oeste 40 Oeste 0 -- -- 89
2021-01-13 19:00:00 3.5 15 Oeste 36 Oeste 0 -- -- 89
2021-01-13 18:00:00 5.8 23 Oeste 44 Oeste 0 -- -- 81
2021-01-13 17:00:00 6.8 22 Oeste 48 Oeste 0 -- -- 78
2021-01-13 16:00:00 7 23 Oeste 47 Noroeste 0 -- -- 79
2021-01-13 15:00:00 7.2 23 Oeste 48 Oeste 0 -- -- 77
2021-01-13 14:00:00 6.5 27 Oeste 44 Oeste 0 -- -- 79
2021-01-13 13:00:00 6.1 31 Oeste 53 Oeste 0 -- -- 80
2021-01-13 12:00:00 5.5 28 Oeste 51 Oeste 0 -- -- 81
2021-01-13 11:00:00 3.9 26 Oeste 58 Oeste 0 -- -- 83
2021-01-13 10:00:00 3.6 29 Oeste 47 Oeste 0 -- -- 83
2021-01-13 09:00:00 3.2 22 Oeste 50 Oeste 0 -- -- 84
2021-01-13 08:00:00 2.6 27 Oeste 47 Oeste 0 -- -- 85
2021-01-13 07:00:00 3.1 26 Oeste 48 Oeste 0 -- -- 84
2021-01-13 06:00:00 3 31 Oeste 50 Oeste 0 -- -- 84
2021-01-13 05:00:00 -- -- -- -- -- -- -- -- --
2021-01-13 04:00:00 -- -- -- -- -- -- -- -- --
2021-01-13 03:00:00 -- -- -- -- -- -- -- -- --
2021-01-13 02:00:00 -- -- -- -- -- -- -- -- --
2021-01-13 01:00:00 -- -- -- -- -- -- -- -- --
2021-01-13 00:00:00 -- -- -- -- -- -- -- -- --
2021-01-12 23:00:00 -- -- -- -- -- -- -- -- --
2021-01-12 22:00:00 -- -- -- -- -- -- -- -- --
2021-01-12 21:00:00 -- -- -- -- -- -- -- -- --
2021-01-12 20:00:00 -- -- -- -- -- -- -- -- --
2021-01-12 19:00:00 -- -- -- -- -- -- -- -- --
2021-01-12 18:00:00 -- -- -- -- -- -- -- -- --
2021-01-12 17:00:00 -- -- -- -- -- -- -- -- --
2021-01-12 16:00:00 -- -- -- -- -- -- -- -- --
2021-01-12 15:00:00 -- -- -- -- -- -- -- -- --
2021-01-12 14:00:00 -- -- -- -- -- -- -- -- --
2021-01-12 13:00:00 -- -- -- -- -- -- -- -- --
2021-01-12 12:00:00 -- -- -- -- -- -- -- -- --
2021-01-12 11:00:00 -- -- -- -- -- -- -- -- --
2021-01-12 10:00:00 -- -- -- -- -- -- -- -- --
2021-01-12 09:00:00 -- -- -- -- -- -- -- -- --
2021-01-12 08:00:00 -- -- -- -- -- -- -- -- --
2021-01-12 07:00:00 -- -- -- -- -- -- -- -- --
2021-01-12 06:00:00 -- -- -- -- -- -- -- -- --
2021-01-12 05:00:00 -- -- -- -- -- -- -- -- --
2021-01-12 04:00:00 -- -- -- -- -- -- -- -- --
2021-01-12 03:00:00 -- -- -- -- -- -- -- -- --
2021-01-12 02:00:00 -- -- -- -- -- -- -- -- --
2021-01-12 01:00:00 -- -- -- -- -- -- -- -- --
2021-01-12 00:00:00 -- -- -- -- -- -- -- -- --
2021-01-11 23:00:00 -- -- -- -- -- -- -- -- --
2021-01-11 22:00:00 -- -- -- -- -- -- -- -- --
2021-01-11 21:00:00 -- -- -- -- -- -- -- -- --
2021-01-11 20:00:00 -- -- -- -- -- -- -- -- --
2021-01-11 19:00:00 -- -- -- -- -- -- -- -- --
2021-01-11 18:00:00 -- -- -- -- -- -- -- -- --
2021-01-11 17:00:00 -- -- -- -- -- -- -- -- --
2021-01-11 16:00:00 -- -- -- -- -- -- -- -- --
2021-01-11 15:00:00 -- -- -- -- -- -- -- -- --
2021-01-11 14:00:00 -- -- -- -- -- -- -- -- --
2021-01-11 13:00:00 0.9 20 Oeste 30 Oeste 0 -- -- 70
2021-01-11 12:00:00 -0.4 15 Oeste 22 Sudoeste 0 -- -- 75
2021-01-11 11:00:00 -0.3 13 Noroeste 27 Noroeste 0 -- -- 71
2021-01-11 10:00:00 -3.7 5 Oeste 22 Oeste 0 -- -- 82
2021-01-11 09:00:00 -2.6 17 Oeste 24 Oeste 0 -- -- 79
2021-01-11 08:00:00 -3.2 14 Oeste 31 Oeste 0 -- -- 79
2021-01-11 07:00:00 -2.5 19 Oeste 38 Oeste 0 -- -- 79
2021-01-11 06:00:00 -4.9 16 Oeste 28 Oeste 0 -- -- 87
2021-01-11 05:00:00 -5.9 15 Oeste 27 Oeste 0 -- -- 90
2021-01-11 04:00:00 -5.4 13 Oeste 27 Oeste 0 -- -- 86
2021-01-11 03:00:00 -4.6 15 Oeste 24 Oeste 0 -- -- 83
2021-01-11 02:00:00 -4.4 13 Oeste 28 Oeste 0 -- -- 83
2021-01-11 01:00:00 -4.2 14 Oeste 27 Oeste 0 -- -- 87
2021-01-11 00:00:00 -2.7 15 Oeste 28 Oeste 0 -- -- 83
2021-01-10 23:00:00 -2.2 17 Oeste 31 Oeste 0 -- -- 83
2021-01-10 22:00:00 -1.7 18 Oeste 35 Oeste 0 -- -- 85
2021-01-10 21:00:00 -1.4 15 Oeste 32 Oeste 0 -- -- 84
2021-01-10 20:00:00 -1 16 Noroeste 35 Noroeste 0 -- -- 81
2021-01-10 19:00:00 -0.7 15 Noroeste 32 Oeste 0 -- -- 82
2021-01-10 18:00:00 -0.3 17 Oeste 31 Noroeste 0 -- -- 81
2021-01-10 17:00:00 0.1 18 Noroeste 36 Noroeste 0 -- -- 82
2021-01-10 16:00:00 0.5 15 Oeste 33 Noroeste 0.6 -- -- 85
2021-01-10 15:00:00 0.5 17 Noroeste 36 Noroeste 0.8 -- -- 86
2021-01-10 14:00:00 0.3 26 Noroeste 35 Noroeste 1.2 -- -- 88
2021-01-10 13:00:00 0.4 13 Oeste 27 Oeste 0.4 -- -- 91
2021-01-10 12:00:00 0 -- -- -- -- 0.4 -- -- 92
2021-01-10 11:00:00 -0.5 12 Oeste 21 Oeste 0.4 -- -- 96
2021-01-10 10:00:00 -1.1 9 Oeste 22 Oeste 0 -- -- 97
2021-01-10 09:00:00 -1 15 Oeste 24 Oeste 0 -- -- 98
2021-01-10 08:00:00 -1.1 15 Oeste 27 Oeste 0 -- -- 98
2021-01-10 07:00:00 -0.9 14 Oeste 28 Oeste 0 -- -- 98
2021-01-10 06:00:00 -1 14 Oeste 21 Oeste 0 -- -- 98
2021-01-10 05:00:00 -1.1 17 Oeste 23 Oeste 0 -- -- 98
2021-01-10 04:00:00 -1.2 14 Oeste 22 Oeste 0.2 -- -- 98
2021-01-10 03:00:00 -1.3 11 Oeste 18 Oeste 0.2 -- -- 98
2021-01-10 02:00:00 -1.5 9 Oeste 15 Oeste 0.2 -- -- 98
2021-01-10 01:00:00 -1.6 10 Oeste 16 Oeste 0.2 -- -- 97
2021-01-10 00:00:00 -1.5 9 Oeste 14 Oeste 0 -- -- 97
2021-01-09 23:00:00 -- -- -- -- -- -- -- -- --
2021-01-09 22:00:00 -- -- -- -- -- -- -- -- --
2021-01-09 21:00:00 -- -- -- -- -- -- -- -- --
2021-01-09 20:00:00 -- -- -- -- -- -- -- -- --
2021-01-09 19:00:00 -- -- -- -- -- -- -- -- --
2021-01-09 18:00:00 -- -- -- -- -- -- -- -- --
2021-01-09 17:00:00 -- -- -- -- -- -- -- -- --
2021-01-09 16:00:00 -- -- -- -- -- -- -- -- --
2021-01-09 15:00:00 -- -- -- -- -- -- -- -- --
2021-01-09 14:00:00 -- -- -- -- -- -- -- -- --
2021-01-09 13:00:00 -- -- -- -- -- -- -- -- --
2021-01-09 12:00:00 -- -- -- -- -- -- -- -- --
2021-01-09 11:00:00 -- -- -- -- -- -- -- -- --
2021-01-09 10:00:00 -- -- -- -- -- -- -- -- --
2021-01-09 09:00:00 -1.9 2 Oeste 7 Noroeste 1.2 -- -- 96
2021-01-09 08:00:00 -1.9 3 Noroeste 6 Oeste 1.4 -- -- 96
2021-01-09 07:00:00 -1.8 3 Noroeste 4 Oeste 0.6 -- -- 96
2021-01-09 06:00:00 -1.8 2 Noroeste 4 Oeste 0.2 -- -- 95
2021-01-09 05:00:00 -1.7 0 Calma 3 Noroeste 0.2 -- -- 95
2021-01-09 04:00:00 -1.6 2 Oeste 9 Este 0.2 -- -- 93
2021-01-09 03:00:00 -1.5 4 Este 12 Nordeste 0.4 -- -- 92
2021-01-09 02:00:00 -1.3 3 Nordeste 9 Este 0.6 -- -- 92
2021-01-09 01:00:00 -1.3 6 Nordeste 9 Nordeste 0.2 -- -- 91
2021-01-09 00:00:00 -1.1 4 Nordeste 9 Nordeste 0 -- -- 86
2021-01-08 23:00:00 -0.9 6 Nordeste 9 Este 0 -- -- 81
2021-01-08 22:00:00 -1.2 6 Este 9 Este 0 -- -- 82
2021-01-08 21:00:00 -1.1 4 Nordeste 6 Nordeste 0 -- -- 81
2021-01-08 20:00:00 -1.2 4 Este 6 Este 0 -- -- 81
2021-01-08 19:00:00 -1.1 0 Calma 3 Noroeste 0 -- -- 80
2021-01-08 18:00:00 -1 3 Noroeste 8 Sudoeste 0 -- -- 80
2021-01-08 17:00:00 -0.6 8 Oeste 14 Oeste 0 -- -- 79
2021-01-08 16:00:00 -0.4 9 Oeste 14 Oeste 0 -- -- 78
2021-01-08 15:00:00 -0.1 11 Oeste 18 Oeste 0 -- -- 74
2021-01-08 14:00:00 0.1 13 Oeste 25 Oeste 0 -- -- 71
2021-01-08 13:00:00 -0.5 15 Oeste 21 Oeste 0 -- -- 77
2021-01-08 12:00:00 -1.8 13 Oeste 16 Oeste 0 -- -- 85
2021-01-08 11:00:00 -2.7 12 Sudoeste 17 Sudoeste 0 -- -- 86
2021-01-08 10:00:00 -4.1 3 Sudoeste 7 Oeste 0 -- -- 89
2021-01-08 09:00:00 -4.9 6 Noroeste 9 Oeste 0 -- -- 90
2021-01-08 08:00:00 -4.9 5 Oeste 9 Oeste 0 -- -- 90
2021-01-08 07:00:00 -5 7 Oeste 10 Noroeste 0 -- -- 91
2021-01-08 06:00:00 -4.8 6 Noroeste 10 Oeste 0 -- -- 91
2021-01-08 05:00:00 -4.6 7 Oeste 11 Oeste 0 -- -- 90
2021-01-08 04:00:00 -4.3 9 Oeste 13 Oeste 0 -- -- 89
2021-01-08 03:00:00 -4.1 3 Sudoeste 7 Oeste 0 -- -- 88
2021-01-08 02:00:00 -3.4 4 Oeste 9 Oeste 0 -- -- 90
2021-01-08 01:00:00 -3.2 6 Oeste 9 Oeste 0 -- -- 91
2021-01-08 00:00:00 -3 4 Oeste 8 Oeste 0 -- -- 92
2021-01-07 23:00:00 -2.8 6 Oeste 10 Oeste 0 -- -- 92
2021-01-07 22:00:00 -2.6 6 Oeste 9 Oeste 0 -- -- 90
2021-01-07 21:00:00 -1.9 3 Noroeste 6 Oeste 0 -- -- 89
2021-01-07 20:00:00 -2 6 Oeste 8 Oeste 0 -- -- 88
2021-01-07 19:00:00 -1.8 3 Noroeste 5 Noroeste 0 -- -- 86
2021-01-07 18:00:00 -1.6 3 Noroeste 7 Oeste 0 -- -- 86
2021-01-07 17:00:00 -1.4 5 Oeste 10 Oeste 0 -- -- 88
2021-01-07 16:00:00 -1.1 6 Oeste 16 Oeste 0 -- -- 86
2021-01-07 15:00:00 -0.6 12 Oeste 16 Oeste 0 -- -- 85
2021-01-07 14:00:00 -1 9 Oeste 11 Oeste 0 -- -- 87
2021-01-07 13:00:00 -1.5 5 Oeste 10 Oeste -- -- -- 88
2021-01-07 12:00:00 -1.8 6 Oeste 9 Oeste 0 -- -- 90
2021-01-07 11:00:00 -2.5 0 Calma 6 Oeste 0 -- -- 91
2021-01-07 10:00:00 -3 4 Noroeste 6 Nordeste 0 -- -- 92
2021-01-07 09:00:00 -3.3 4 Nordeste 10 Nordeste 0 -- -- 93
2021-01-07 08:00:00 -3.6 8 Nordeste 9 Nordeste 0 -- -- 92
2021-01-07 07:00:00 -4.3 8 Nordeste 10 Este 0 -- -- 91
2021-01-07 06:00:00 -4.4 6 Nordeste 12 Nordeste 0 -- -- 91
2021-01-07 05:00:00 -4 11 Nordeste 12 Nordeste 0 -- -- 90
2021-01-07 04:00:00 -3.3 7 Nordeste 12 Nordeste 0 -- -- 89
2021-01-07 03:00:00 -3.1 9 Nordeste 12 Nordeste 0 -- -- 88
2021-01-07 02:00:00 -3.5 10 Nordeste 13 Nordeste 0 -- -- 89
2021-01-07 01:00:00 -2.9 9 Nordeste 14 Nordeste 0 -- -- 87
2021-01-07 00:00:00 -1.8 6 Nordeste 11 Nordeste 0 -- -- 85
2021-01-06 23:00:00 -2 9 Nordeste 12 Nordeste 0 -- -- 84
2021-01-06 22:00:00 -2.2 10 Nordeste 12 Nordeste 0 -- -- 83
2021-01-06 21:00:00 -2.4 9 Este 12 Este 0 -- -- 85
2021-01-06 20:00:00 -1.8 7 Este 12 Nordeste 0 -- -- 81
2021-01-06 19:00:00 0.1 7 Nordeste 11 Nordeste 0 -- -- 74
2021-01-06 18:00:00 2.1 2 Sudoeste 14 Oeste 0 -- -- 67
2021-01-06 17:00:00 3.8 12 Oeste 19 Oeste 0 -- -- 60
2021-01-06 16:00:00 3.9 12 Oeste 22 Oeste 0 -- -- 60
2021-01-06 15:00:00 3.6 13 Oeste 25 Oeste 0 -- -- 62
2021-01-06 14:00:00 3.1 17 Oeste 23 Oeste 0 -- -- 64
2021-01-06 13:00:00 1.8 16 Oeste 22 Oeste 0 -- -- 71
2021-01-06 12:00:00 0.4 14 Oeste 18 Oeste 0 -- -- 81
2021-01-06 11:00:00 -0.8 7 Oeste 10 Oeste 0 -- -- 84
2021-01-06 10:00:00 -1.9 3 Sudeste 6 Oeste 0 -- -- 88
2021-01-06 09:00:00 -3.5 6 Oeste 9 Oeste 0 -- -- 91
2021-01-06 08:00:00 -3.3 3 Oeste 8 Oeste 0 -- -- 90
2021-01-06 07:00:00 -2.8 4 Oeste 8 Oeste 0 -- -- 89
2021-01-06 06:00:00 -3 6 Noroeste 8 Oeste 0 -- -- 91
2021-01-06 05:00:00 -3.2 5 Oeste 10 Noroeste 0 -- -- 91
2021-01-06 04:00:00 -3.2 6 Oeste 10 Oeste 0 -- -- 90
2021-01-06 03:00:00 -2.9 3 Noroeste 23 Noroeste 0 -- -- 90
2021-01-06 02:00:00 -0.9 13 Noroeste 27 Noroeste 0 -- -- 81
2021-01-06 01:00:00 -1.1 10 Oeste 19 Noroeste 0 -- -- 82
2021-01-06 00:00:00 -1.1 9 Noroeste 17 Noroeste 0 -- -- 83
2021-01-05 23:00:00 -1.7 8 Oeste 12 Oeste 0 -- -- 88
2021-01-05 22:00:00 -0.9 9 Oeste 20 Noroeste 0 -- -- 82
2021-01-05 21:00:00 0.3 12 Oeste 24 Oeste 0 -- -- 77
2021-01-05 20:00:00 0.9 12 Noroeste 24 Oeste 0 -- -- 76
2021-01-05 19:00:00 1.5 15 Oeste 23 Oeste 0 -- -- 75
2021-01-05 18:00:00 2.1 10 Noroeste 27 Noroeste 0 -- -- 74
2021-01-05 17:00:00 3.3 13 Noroeste 41 Oeste 0 -- -- 70
2021-01-05 16:00:00 4.3 18 Noroeste 38 Oeste 0 -- -- 72
2021-01-05 15:00:00 4.4 21 Noroeste 36 Oeste 0 -- -- 69
2021-01-05 14:00:00 4.5 18 Oeste 36 Oeste 0 -- -- 70
2021-01-05 13:00:00 3.5 20 Oeste 34 Oeste 0 -- -- 80
2021-01-05 12:00:00 2.3 18 Oeste 27 Oeste 0 -- -- 81
2021-01-05 11:00:00 1.2 18 Oeste 31 Oeste 0 -- -- 85
2021-01-05 10:00:00 -0.4 11 Oeste 20 Oeste 0 -- -- 92
2021-01-05 09:00:00 -0.5 13 Oeste 25 Noroeste 0 -- -- 92
2021-01-05 08:00:00 -0.3 17 Oeste 33 Oeste 0 -- -- 92
2021-01-05 07:00:00 0.2 19 Noroeste 39 Noroeste 0 -- -- 90
2021-01-05 06:00:00 -0.6 13 Oeste 25 Oeste 0 -- -- 92
2021-01-05 05:00:00 0.2 16 Noroeste 28 Oeste 0 -- -- 84
2021-01-05 04:00:00 0.2 15 Noroeste 30 Noroeste 0 -- -- 85
2021-01-05 03:00:00 0 14 Noroeste 27 Oeste 0 -- -- 87
2021-01-05 02:00:00 0.3 15 Noroeste 30 Oeste 0 -- -- 85
2021-01-05 01:00:00 0.1 18 Noroeste 38 Oeste 0 -- -- 89
2021-01-05 00:00:00 0 17 Oeste 29 Oeste 0 -- -- 90
2021-01-04 23:00:00 0.3 18 Oeste 34 Noroeste 0 -- -- 89
2021-01-04 22:00:00 0.4 15 Oeste 29 Noroeste 0 -- -- 90
2021-01-04 21:00:00 0.6 16 Oeste 34 Oeste 0 -- -- 91
2021-01-04 20:00:00 1.4 23 Noroeste 37 Noroeste 0 -- -- 85
2021-01-04 19:00:00 2 15 Oeste 26 Oeste 0 -- -- 81
2021-01-04 18:00:00 1.9 10 Oeste 24 Oeste 0 -- -- 80
2021-01-04 17:00:00 2.4 15 Oeste 23 Oeste 0 -- -- 78
2021-01-04 16:00:00 3.1 11 Noroeste 19 Noroeste 0 -- -- 71
2021-01-04 15:00:00 3.1 7 Oeste 13 Noroeste 0 -- -- 70
2021-01-04 14:00:00 2.6 6 Noroeste 17 Noroeste 0 -- -- 71
2021-01-04 13:00:00 2.9 10 Oeste 22 Oeste 0 -- -- 72
2021-01-04 12:00:00 3.3 8 Oeste 13 Oeste 0 -- -- 73
2021-01-04 11:00:00 2.9 4 Sudoeste 10 Este 0 -- -- 82
2021-01-04 10:00:00 -0.3 7 Este 10 Nordeste 0 -- -- 91
2021-01-04 09:00:00 -1.4 7 Nordeste 12 Nordeste 0 -- -- 95
2021-01-04 08:00:00 -1.7 9 Nordeste 12 Este 0 -- -- 93
2021-01-04 07:00:00 -1.3 8 Nordeste 10 Este 0 -- -- 94
2021-01-04 06:00:00 -0.6 7 Este 9 Este 0 -- -- 93
2021-01-04 05:00:00 -0.7 7 Nordeste 11 Este 0 -- -- 96
2021-01-04 04:00:00 -1.6 8 Este 12 Este 0 -- -- 97
2021-01-04 03:00:00 -0.9 4 Este 6 Este 0 -- -- 96
2021-01-04 02:00:00 -0.3 0 Calma 7 Oeste 0 -- -- 96
2021-01-04 01:00:00 0.2 5 Oeste 21 Oeste 0 -- -- 96
2021-01-04 00:00:00 0.8 16 Oeste 25 Oeste 0 -- -- 95
2021-01-03 23:00:00 0.5 14 Oeste 30 Oeste 0.4 -- -- 94
2021-01-03 22:00:00 1.7 19 Oeste 36 Noroeste 0 -- -- 87
2021-01-03 21:00:00 1.2 10 Noroeste 13 Noroeste 0 -- -- 83
2021-01-03 20:00:00 2 4 Noroeste 19 Noroeste 0 -- -- 79
2021-01-03 19:00:00 3 14 Oeste 24 Noroeste 0 -- -- 74
2021-01-03 18:00:00 3.9 18 Noroeste 33 Oeste 0 -- -- 68
2021-01-03 17:00:00 5.5 14 Noroeste 36 Oeste 0 -- -- 66
2021-01-03 16:00:00 5.9 19 Oeste 40 Oeste 0 -- -- 64
2021-01-03 15:00:00 5.2 23 Oeste 45 Oeste 0 -- -- 67
2021-01-03 14:00:00 5.6 27 Oeste 45 Oeste 0 -- -- 67
2021-01-03 13:00:00 4.8 28 Oeste 46 Oeste 0 -- -- 73
2021-01-03 12:00:00 3.6 23 Oeste 36 Oeste 0 -- -- 77
2021-01-03 11:00:00 2.2 23 Noroeste 45 Oeste 0 -- -- 81
2021-01-03 10:00:00 1.5 23 Noroeste 40 Oeste 0 -- -- 82
2021-01-03 09:00:00 0.4 22 Oeste 40 Oeste 0 -- -- 81
2021-01-03 08:00:00 0 24 Oeste 45 Oeste 0 -- -- 79
2021-01-03 07:00:00 0 21 Oeste 40 Noroeste 0 -- -- 77
2021-01-03 06:00:00 0 21 Noroeste 54 Oeste 0 -- -- 76
2021-01-03 05:00:00 -0.4 30 Oeste 50 Oeste 0 -- -- 77
2021-01-03 04:00:00 -0.2 29 Noroeste 61 Noroeste 0 -- -- 71
2021-01-03 03:00:00 -0.3 30 Noroeste 62 Noroeste 0 -- -- 71
2021-01-03 02:00:00 -0.5 28 Noroeste 55 Noroeste 0 -- -- 72
2021-01-03 01:00:00 -0.5 29 Noroeste 48 Noroeste 0 -- -- 68
2021-01-03 00:00:00 -0.5 18 Oeste 49 Noroeste 0 -- -- 68
2021-01-02 23:00:00 -0.2 26 Noroeste 49 Noroeste 0 -- -- 66
2021-01-02 22:00:00 0 31 Oeste 53 Oeste 0 -- -- 64
2021-01-02 21:00:00 0.2 27 Oeste 49 Noroeste 0 -- -- 64
2021-01-02 20:00:00 0.5 26 Noroeste 52 Noroeste 0 -- -- 67
2021-01-02 19:00:00 0.5 34 Noroeste 62 Noroeste 0 -- -- 65
2021-01-02 18:00:00 0.7 38 Noroeste 63 Oeste 0 -- -- 60
2021-01-02 17:00:00 2 23 Noroeste 44 Noroeste 0 -- -- 54
2021-01-02 16:00:00 3.5 27 Noroeste 51 Noroeste 0 -- -- 51
2021-01-02 15:00:00 3.9 27 Noroeste 51 Noroeste 0 -- -- 50
2021-01-02 14:00:00 3.8 26 Noroeste 50 Noroeste 0 -- -- 50